Time;durP1;ratioP1;P1;durP2;ratioP2;P2;SDS_P1;SDS_P2;PMS_P1;PMS_P2;Temp;Humidity;BMP_temperature;BMP_pressure;BME280_temperature;BME280_humidity;BME280_pressure;Samples;Min_cycle;Max_cycle;Signal;HPM_P1;HPM_P2
2023/08/02 00:02:07;;;;;;;2.58;1.92;;;;;;;;;;6253651;28;20581;-80
2023/08/02 00:05:09;;;;;;;2.83;1.73;;;;;;;;;;6256386;28;20041;-76
2023/08/02 00:08:11;;;;;;;2.85;2.30;;;;;;;;;;6253150;28;20120;-78
2023/08/02 00:11:16;;;;;;;2.30;2.00;;;;;;;;;;6252045;28;20048;-78
2023/08/02 00:14:18;;;;;;;3.00;2.10;;;;;;;;;;6254381;28;20042;-79
2023/08/02 00:17:22;;;;;;;5.30;2.08;;;;;;;;;;6246704;28;20065;-78
2023/08/02 00:20:24;;;;;;;4.43;2.05;;;;;;;;;;6258941;28;20490;-80
2023/08/02 00:23:26;;;;;;;3.92;2.38;;;;;;;;;;6257640;28;20038;-81
2023/08/02 00:26:28;;;;;;;4.10;2.43;;;;;;;;;;6261144;28;20044;-80
2023/08/02 00:29:29;;;;;;;5.70;2.28;;;;;;;;;;6260191;28;20047;-79
2023/08/02 00:32:31;;;;;;;4.72;2.13;;;;;;;;;;6259080;28;20060;-78
2023/08/02 00:35:33;;;;;;;3.33;2.20;;;;;;;;;;6247607;28;20049;-76
2023/08/02 00:38:35;;;;;;;3.88;2.40;;;;;;;;;;6250550;28;20049;-76
2023/08/02 00:41:37;;;;;;;6.90;2.43;;;;;;;;;;6253058;28;20057;-79
2023/08/02 00:44:39;;;;;;;3.30;2.00;;;;;;;;;;6255483;28;20515;-79
2023/08/02 00:47:41;;;;;;;4.88;2.00;;;;;;;;;;6256132;28;20048;-79
2023/08/02 00:50:43;;;;;;;3.00;2.20;;;;;;;;;;6257873;28;20033;-79
2023/08/02 00:53:46;;;;;;;3.70;2.38;;;;;;;;;;6229199;28;20071;-79
2023/08/02 00:56:48;;;;;;;3.92;1.90;;;;;;;;;;6229121;28;20499;-80
2023/08/02 00:59:50;;;;;;;5.38;2.03;;;;;;;;;;6237132;28;20180;-79
2023/08/02 01:02:52;;;;;;;3.42;2.20;;;;;;;;;;6257637;28;20049;-80
2023/08/02 01:06:06;;;;;;;2.95;2.00;;;;;;;;;;6227603;28;20044;-80
2023/08/02 01:09:14;;;;;;;3.60;1.80;;;;;;;;;;6254546;28;20059;-77
2023/08/02 01:12:17;;;;;;;2.95;1.70;;;;;;;;;;6245208;28;20053;-77
2023/08/02 01:15:20;;;;;;;5.32;1.70;;;;;;;;;;6237091;28;20044;-79
2023/08/02 01:18:22;;;;;;;4.55;1.85;;;;;;;;;;6254223;28;20060;-77
2023/08/02 01:21:23;;;;;;;3.15;1.67;;;;;;;;;;6253025;28;20055;-80
2023/08/02 01:24:32;;;;;;;4.70;1.88;;;;;;;;;;6257260;28;20041;-78
2023/08/02 01:27:37;;;;;;;2.17;1.52;;;;;;;;;;6249352;28;20443;-79
2023/08/02 01:30:40;;;;;;;2.13;1.50;;;;;;;;;;6253243;28;20419;-78
2023/08/02 01:33:53;;;;;;;2.78;1.45;;;;;;;;;;6248073;28;20052;-78
2023/08/02 01:36:55;;;;;;;2.92;1.50;;;;;;;;;;6257824;28;20063;-79
2023/08/02 01:39:57;;;;;;;1.75;1.48;;;;;;;;;;6237601;28;20404;-78
2023/08/02 01:42:59;;;;;;;3.40;1.55;;;;;;;;;;6246588;28;20055;-80
2023/08/02 01:46:00;;;;;;;3.75;1.73;;;;;;;;;;6261947;28;20088;-80
2023/08/02 01:49:02;;;;;;;2.95;1.75;;;;;;;;;;6224143;28;20049;-80
2023/08/02 01:52:04;;;;;;;4.25;1.67;;;;;;;;;;6237931;28;20053;-78
2023/08/02 01:55:06;;;;;;;4.07;1.80;;;;;;;;;;6256225;28;20095;-80
2023/08/02 01:58:08;;;;;;;3.47;1.77;;;;;;;;;;6240934;28;20440;-78
2023/08/02 02:01:10;;;;;;;8.93;2.03;;;;;;;;;;6236047;28;20116;-75
2023/08/02 02:04:12;;;;;;;4.13;2.00;;;;;;;;;;6240940;28;20040;-79
2023/08/02 02:07:13;;;;;;;3.97;2.17;;;;;;;;;;6253619;28;20170;-78
2023/08/02 02:10:15;;;;;;;4.05;2.33;;;;;;;;;;6244000;28;20128;-79
2023/08/02 02:13:18;;;;;;;6.82;2.30;;;;;;;;;;6251736;28;20057;-78
2023/08/02 02:16:19;;;;;;;6.03;2.50;;;;;;;;;;6268618;28;20050;-77
2023/08/02 02:19:21;;;;;;;5.75;2.45;;;;;;;;;;6270432;28;20063;-77
2023/08/02 02:22:23;;;;;;;5.72;2.40;;;;;;;;;;6274019;28;20056;-79
2023/08/02 02:25:25;;;;;;;3.22;2.40;;;;;;;;;;6262676;28;20396;-79
2023/08/02 02:28:27;;;;;;;7.90;3.22;;;;;;;;;;6243394;28;20105;-77
2023/08/02 02:31:29;;;;;;;5.47;2.42;;;;;;;;;;6250363;28;20056;-78
2023/08/02 02:34:31;;;;;;;5.47;2.70;;;;;;;;;;6261796;28;20063;-80
2023/08/02 02:37:34;;;;;;;4.05;2.70;;;;;;;;;;6255106;28;20037;-80
2023/08/02 02:40:36;;;;;;;4.85;2.67;;;;;;;;;;6251026;28;20045;-79
2023/08/02 02:43:38;;;;;;;5.10;2.40;;;;;;;;;;6250333;28;20037;-76
2023/08/02 02:46:40;;;;;;;5.45;2.28;;;;;;;;;;6258256;28;20045;-78
2023/08/02 02:49:42;;;;;;;4.47;2.20;;;;;;;;;;6255663;28;20046;-78
2023/08/02 02:52:44;;;;;;;3.42;2.10;;;;;;;;;;6256888;28;20472;-79
2023/08/02 02:55:45;;;;;;;3.60;1.92;;;;;;;;;;6252932;28;20053;-79
2023/08/02 02:58:47;;;;;;;5.32;1.95;;;;;;;;;;6251884;28;20500;-78
2023/08/02 03:01:50;;;;;;;3.17;2.00;;;;;;;;;;6253510;28;20060;-78
2023/08/02 03:04:51;;;;;;;4.50;2.10;;;;;;;;;;6258482;28;20592;-80
2023/08/02 03:07:53;;;;;;;2.92;2.00;;;;;;;;;;6254680;28;20045;-78
2023/08/02 03:10:55;;;;;;;3.28;1.90;;;;;;;;;;6257647;28;20044;-79
2023/08/02 03:13:56;;;;;;;3.65;2.13;;;;;;;;;;6254352;28;20037;-79
2023/08/02 03:16:58;;;;;;;5.20;1.90;;;;;;;;;;6251518;28;20053;-77
2023/08/02 03:20:00;;;;;;;2.50;1.65;;;;;;;;;;6233084;28;20057;-78
2023/08/02 03:23:01;;;;;;;3.53;2.30;;;;;;;;;;6250053;28;20045;-78
2023/08/02 03:26:03;;;;;;;4.15;2.10;;;;;;;;;;6250989;28;20041;-79
2023/08/02 03:29:04;;;;;;;3.42;2.22;;;;;;;;;;6235101;28;20044;-77
2023/08/02 03:32:06;;;;;;;3.25;2.05;;;;;;;;;;6234713;28;20113;-77
2023/08/02 03:35:08;;;;;;;4.55;2.17;;;;;;;;;;6238002;28;20037;-77
2023/08/02 03:38:10;;;;;;;4.18;1.90;;;;;;;;;;6250813;28;20044;-79
2023/08/02 03:41:12;;;;;;;4.22;2.22;;;;;;;;;;6252178;28;20052;-78
2023/08/02 03:44:14;;;;;;;6.35;2.17;;;;;;;;;;6256245;28;20052;-78
2023/08/02 03:47:15;;;;;;;4.65;2.40;;;;;;;;;;6253593;28;20068;-79
2023/08/02 03:50:17;;;;;;;4.38;2.65;;;;;;;;;;6223154;28;20041;-77
2023/08/02 03:53:19;;;;;;;4.60;2.45;;;;;;;;;;6247194;28;20049;-79
2023/08/02 03:56:21;;;;;;;3.95;2.65;;;;;;;;;;6258157;28;20139;-77
2023/08/02 03:59:22;;;;;;;3.78;2.70;;;;;;;;;;6259864;28;20071;-79
2023/08/02 04:02:24;;;;;;;5.57;2.80;;;;;;;;;;6241480;28;20049;-78
2023/08/02 04:05:26;;;;;;;5.07;2.88;;;;;;;;;;6253216;28;20049;-79
2023/08/02 04:08:29;;;;;;;5.15;2.60;;;;;;;;;;6259449;28;20049;-79
2023/08/02 04:11:31;;;;;;;3.00;2.30;;;;;;;;;;6259349;28;20050;-78
2023/08/02 04:14:33;;;;;;;7.85;3.13;;;;;;;;;;6252725;28;20045;-79
2023/08/02 04:17:34;;;;;;;3.97;2.70;;;;;;;;;;6251814;28;20073;-78
2023/08/02 04:20:39;;;;;;;6.88;2.80;;;;;;;;;;6261242;28;20041;-79
2023/08/02 04:23:41;;;;;;;5.78;3.17;;;;;;;;;;6237435;28;20057;-77
2023/08/02 04:26:43;;;;;;;4.73;2.77;;;;;;;;;;6256972;28;20037;-74
2023/08/02 04:29:46;;;;;;;5.35;3.10;;;;;;;;;;6252414;28;20049;-76
2023/08/02 04:32:47;;;;;;;5.57;2.80;;;;;;;;;;6258488;28;20041;-78
2023/08/02 04:35:49;;;;;;;3.75;2.42;;;;;;;;;;6260702;28;20037;-78
2023/08/02 04:38:52;;;;;;;6.75;2.80;;;;;;;;;;6243241;28;20121;-76
2023/08/02 04:41:54;;;;;;;4.93;2.70;;;;;;;;;;6269609;28;20044;-76
2023/08/02 04:44:56;;;;;;;4.47;2.58;;;;;;;;;;6263638;28;20044;-77
2023/08/02 04:47:58;;;;;;;5.25;2.58;;;;;;;;;;6266926;28;20053;-77
2023/08/02 04:51:06;;;;;;;5.18;2.78;;;;;;;;;;6276144;28;20053;-76
2023/08/02 04:54:08;;;;;;;3.53;2.40;;;;;;;;;;6270736;28;20052;-75
2023/08/02 04:57:09;;;;;;;4.63;2.58;;;;;;;;;;6277002;28;20049;-76
2023/08/02 05:00:11;;;;;;;6.22;2.90;;;;;;;;;;6273556;28;20053;-76
2023/08/02 05:03:13;;;;;;;4.65;2.38;;;;;;;;;;6255952;28;20051;-76
2023/08/02 05:06:15;;;;;;;6.00;2.88;;;;;;;;;;6269302;28;20056;-76
2023/08/02 05:09:17;;;;;;;3.92;2.72;;;;;;;;;;6279782;28;20056;-76
2023/08/02 05:12:19;;;;;;;4.53;2.60;;;;;;;;;;6256189;28;20037;-75
2023/08/02 05:15:20;;;;;;;3.20;2.53;;;;;;;;;;6267107;28;20076;-79
2023/08/02 05:18:22;;;;;;;8.63;2.83;;;;;;;;;;6264669;28;20045;-78
2023/08/02 05:21:24;;;;;;;4.85;2.60;;;;;;;;;;6242538;28;20056;-78
2023/08/02 05:24:26;;;;;;;5.30;2.38;;;;;;;;;;6252487;28;20052;-76
2023/08/02 05:27:28;;;;;;;4.93;2.78;;;;;;;;;;6250532;28;20040;-76
2023/08/02 05:30:31;;;;;;;5.07;3.00;;;;;;;;;;6258872;28;20057;-77
2023/08/02 05:33:33;;;;;;;6.20;3.25;;;;;;;;;;6261857;28;20049;-78
2023/08/02 05:36:34;;;;;;;5.30;2.50;;;;;;;;;;6255679;28;20076;-78
2023/08/02 05:39:36;;;;;;;5.15;3.00;;;;;;;;;;6257289;28;20061;-75
2023/08/02 05:42:38;;;;;;;3.85;2.45;;;;;;;;;;6255370;28;20534;-77
2023/08/02 05:45:40;;;;;;;5.28;3.03;;;;;;;;;;6257322;28;20069;-79
2023/08/02 05:48:41;;;;;;;5.00;2.63;;;;;;;;;;6255910;28;20515;-77
2023/08/02 05:51:43;;;;;;;4.72;2.92;;;;;;;;;;6256403;28;20418;-78
2023/08/02 05:54:45;;;;;;;4.75;2.88;;;;;;;;;;6256441;28;20088;-76
2023/08/02 05:57:50;;;;;;;4.97;2.53;;;;;;;;;;6270987;28;20045;-75
2023/08/02 06:00:51;;;;;;;6.07;2.72;;;;;;;;;;6263188;28;20518;-76
2023/08/02 06:03:53;;;;;;;6.82;2.70;;;;;;;;;;6255055;28;20131;-76
2023/08/02 06:06:55;;;;;;;4.78;2.80;;;;;;;;;;6237389;28;21077;-75
2023/08/02 06:09:56;;;;;;;5.80;2.95;;;;;;;;;;6253232;28;20055;-78
2023/08/02 06:12:58;;;;;;;5.40;3.38;;;;;;;;;;6250585;28;20049;-76
2023/08/02 06:16:00;;;;;;;6.72;3.40;;;;;;;;;;6254717;28;20499;-76
2023/08/02 06:19:02;;;;;;;6.70;3.30;;;;;;;;;;6251121;28;20705;-77
2023/08/02 06:22:03;;;;;;;6.60;3.45;;;;;;;;;;6248538;28;20132;-78
2023/08/02 06:25:05;;;;;;;5.75;3.33;;;;;;;;;;6252167;28;20056;-77
2023/08/02 06:28:07;;;;;;;8.47;3.63;;;;;;;;;;6251446;28;20049;-76
2023/08/02 06:31:09;;;;;;;4.53;3.05;;;;;;;;;;6253519;28;20056;-79
2023/08/02 06:34:10;;;;;;;6.25;3.55;;;;;;;;;;6252614;28;20120;-75
2023/08/02 06:37:12;;;;;;;9.27;3.35;;;;;;;;;;6252276;28;20048;-78
2023/08/02 06:40:14;;;;;;;6.28;3.42;;;;;;;;;;6253812;28;20060;-78
2023/08/02 06:43:16;;;;;;;5.20;3.35;;;;;;;;;;6248700;28;20451;-78
2023/08/02 06:46:17;;;;;;;6.60;3.30;;;;;;;;;;6253347;28;20056;-75
2023/08/02 06:49:19;;;;;;;5.53;3.47;;;;;;;;;;6256465;28;20534;-78
2023/08/02 06:52:21;;;;;;;5.35;3.15;;;;;;;;;;6253663;28;20059;-75
2023/08/02 06:55:22;;;;;;;8.82;3.55;;;;;;;;;;6247737;28;20059;-75
2023/08/02 06:58:24;;;;;;;6.22;3.15;;;;;;;;;;6260168;28;20048;-77
2023/08/02 07:01:25;;;;;;;6.53;3.22;;;;;;;;;;6255159;28;20056;-78
2023/08/02 07:04:27;;;;;;;7.05;3.53;;;;;;;;;;6246925;28;20040;-77
2023/08/02 07:07:29;;;;;;;5.38;3.50;;;;;;;;;;6255121;28;20053;-79
2023/08/02 07:10:31;;;;;;;7.18;3.17;;;;;;;;;;6248256;28;20588;-78
2023/08/02 07:13:33;;;;;;;4.25;2.78;;;;;;;;;;6251743;28;20045;-75
2023/08/02 07:16:35;;;;;;;5.07;2.83;;;;;;;;;;6230440;28;20049;-78
2023/08/02 07:19:36;;;;;;;3.65;2.47;;;;;;;;;;6247522;28;20064;-77
2023/08/02 07:22:41;;;;;;;3.88;2.42;;;;;;;;;;6249137;28;20620;-77
2023/08/02 07:25:43;;;;;;;4.70;3.00;;;;;;;;;;6248176;28;20633;-75
2023/08/02 07:28:44;;;;;;;3.50;2.38;;;;;;;;;;6242927;28;20041;-78
2023/08/02 07:31:46;;;;;;;3.33;2.70;;;;;;;;;;6248093;28;20077;-79
2023/08/02 07:34:48;;;;;;;2.75;2.20;;;;;;;;;;6245521;28;20049;-77
2023/08/02 07:37:49;;;;;;;4.05;2.30;;;;;;;;;;6248899;28;20115;-77
2023/08/02 07:40:51;;;;;;;3.65;2.40;;;;;;;;;;6237336;28;20049;-79
2023/08/02 07:43:52;;;;;;;3.67;2.40;;;;;;;;;;6252295;28;20037;-80
2023/08/02 07:46:54;;;;;;;5.18;2.33;;;;;;;;;;6252186;28;20061;-79
2023/08/02 07:49:56;;;;;;;4.30;2.35;;;;;;;;;;6255973;28;20045;-76
2023/08/02 07:52:57;;;;;;;2.75;1.98;;;;;;;;;;6245911;28;20512;-80
2023/08/02 07:56:03;;;;;;;3.25;2.22;;;;;;;;;;6236796;28;20065;-78
2023/08/02 07:59:04;;;;;;;3.03;2.13;;;;;;;;;;6250513;28;20590;-77
2023/08/02 08:02:06;;;;;;;4.45;2.35;;;;;;;;;;6249991;28;20045;-80
2023/08/02 08:05:08;;;;;;;3.25;2.30;;;;;;;;;;6258515;28;20182;-79
2023/08/02 08:08:10;;;;;;;3.55;2.28;;;;;;;;;;6249972;28;20048;-80
2023/08/02 08:11:11;;;;;;;2.47;2.20;;;;;;;;;;6256790;28;20411;-79
2023/08/02 08:14:13;;;;;;;6.53;2.38;;;;;;;;;;6251414;28;20041;-77
2023/08/02 08:17:15;;;;;;;5.10;2.65;;;;;;;;;;6257104;28;20037;-80
2023/08/02 08:20:16;;;;;;;4.57;2.50;;;;;;;;;;6239251;28;20052;-79
2023/08/02 08:23:18;;;;;;;3.75;2.38;;;;;;;;;;6252406;28;20084;-79
2023/08/02 08:26:20;;;;;;;2.58;2.22;;;;;;;;;;6256271;28;20049;-77
2023/08/02 08:29:21;;;;;;;3.22;2.13;;;;;;;;;;6254289;28;20042;-76
2023/08/02 08:32:26;;;;;;;2.97;1.80;;;;;;;;;;6242628;28;20418;-78
2023/08/02 08:35:29;;;;;;;2.80;2.10;;;;;;;;;;6248829;28;20091;-77
2023/08/02 08:38:31;;;;;;;2.47;1.58;;;;;;;;;;6239476;28;20048;-79
2023/08/02 08:41:32;;;;;;;2.53;1.77;;;;;;;;;;6252029;28;20515;-77
2023/08/02 08:44:38;;;;;;;2.92;1.88;;;;;;;;;;6253986;28;20056;-79
2023/08/02 08:47:41;;;;;;;2.92;1.60;;;;;;;;;;6258843;28;20056;-79
2023/08/02 08:50:46;;;;;;;2.50;2.15;;;;;;;;;;6258315;28;20052;-79
2023/08/02 08:53:48;;;;;;;2.33;1.60;;;;;;;;;;6255492;28;20044;-77
2023/08/02 08:56:51;;;;;;;3.15;2.00;;;;;;;;;;6245909;28;20060;-77
2023/08/02 08:59:52;;;;;;;2.70;1.77;;;;;;;;;;6251547;28;20045;-76
2023/08/02 09:02:58;;;;;;;1.90;1.70;;;;;;;;;;6251100;28;20048;-80
2023/08/02 09:06:02;;;;;;;2.45;1.85;;;;;;;;;;6258222;28;20522;-79
2023/08/02 09:09:04;;;;;;;2.42;1.60;;;;;;;;;;6269384;28;20057;-76
2023/08/02 09:12:06;;;;;;;1.63;1.50;;;;;;;;;;6252506;28;20065;-78
2023/08/02 09:15:08;;;;;;;1.85;1.45;;;;;;;;;;6259050;28;20102;-77
2023/08/02 09:18:10;;;;;;;2.10;1.55;;;;;;;;;;6260043;28;20104;-79
2023/08/02 09:21:20;;;;;;;3.53;1.80;;;;;;;;;;6256507;28;20041;-78
2023/08/02 09:24:32;;;;;;;1.42;1.33;;;;;;;;;;6260571;28;20049;-77
2023/08/02 09:27:34;;;;;;;1.08;1.05;;;;;;;;;;6257132;28;20045;-78
2023/08/02 09:30:36;;;;;;;1.27;1.00;;;;;;;;;;6242825;28;20048;-79
2023/08/02 09:33:51;;;;;;;1.40;1.10;;;;;;;;;;6261453;28;20059;-79
2023/08/02 09:36:52;;;;;;;1.90;1.20;;;;;;;;;;6261928;28;20057;-79
2023/08/02 09:39:54;;;;;;;1.00;0.90;;;;;;;;;;6259553;28;20048;-78
2023/08/02 09:42:57;;;;;;;1.45;0.95;;;;;;;;;;6259759;28;20049;-80
2023/08/02 09:45:59;;;;;;;1.02;0.90;;;;;;;;;;6259512;28;20124;-80
2023/08/02 09:49:02;;;;;;;1.90;0.90;;;;;;;;;;6242946;28;20073;-78
2023/08/02 09:52:04;;;;;;;1.15;1.00;;;;;;;;;;6257123;28;20045;-79
2023/08/02 09:55:07;;;;;;;1.88;0.98;;;;;;;;;;6235182;28;20052;-78
2023/08/02 09:58:10;;;;;;;;;;;;;;;;;;6256479;28;20045;-79
2023/08/02 10:01:13;;;;;;;1.02;0.85;;;;;;;;;;6244746;28;19921;-77
2023/08/02 10:04:15;;;;;;;0.70;0.70;;;;;;;;;;6254255;28;20525;-78
2023/08/02 10:07:17;;;;;;;1.08;0.82;;;;;;;;;;6257848;28;20056;-75
2023/08/02 10:10:25;;;;;;;1.20;0.82;;;;;;;;;;6279057;28;20060;-76
2023/08/02 10:13:32;;;;;;;1.05;0.77;;;;;;;;;;6250919;28;20049;-79
2023/08/02 10:16:35;;;;;;;1.65;0.70;;;;;;;;;;6257145;28;20067;-78
2023/08/02 10:19:37;;;;;;;1.85;0.70;;;;;;;;;;6261390;28;20516;-78
2023/08/02 10:22:40;;;;;;;0.65;0.40;;;;;;;;;;6256466;28;20430;-77
2023/08/02 10:25:43;;;;;;;0.47;0.47;;;;;;;;;;6250008;28;20048;-77
2023/08/02 10:28:45;;;;;;;0.45;0.40;;;;;;;;;;6243317;28;20049;-78
2023/08/02 10:31:46;;;;;;;0.90;0.40;;;;;;;;;;6254797;28;20099;-79
2023/08/02 10:34:50;;;;;;;0.40;0.40;;;;;;;;;;6248811;28;20046;-76
2023/08/02 10:37:54;;;;;;;1.63;0.50;;;;;;;;;;6233107;28;20368;-77
2023/08/02 10:41:23;;;;;;;0.40;0.40;;;;;;;;;;6217214;28;20048;-77
2023/08/02 10:44:25;;;;;;;1.35;0.50;;;;;;;;;;6229647;28;20619;-77
2023/08/02 10:47:31;;;;;;;0.20;0.20;;;;;;;;;;6230323;28;20045;-78
2023/08/02 10:50:46;;;;;;;0.28;0.20;;;;;;;;;;6245160;28;20550;-77
2023/08/02 10:54:14;;;;;;;0.45;0.30;;;;;;;;;;6238839;28;20125;-79
2023/08/02 10:57:16;;;;;;;0.57;0.30;;;;;;;;;;6247791;28;20048;-78
2023/08/02 11:00:20;;;;;;;1.17;0.77;;;;;;;;;;6248560;28;20053;-77
2023/08/02 11:03:29;;;;;;;0.25;0.25;;;;;;;;;;6247375;28;20044;-77
2023/08/02 11:06:33;;;;;;;1.08;0.30;;;;;;;;;;6247681;28;20069;-77
2023/08/02 11:09:36;;;;;;;0.20;0.20;;;;;;;;;;6249647;28;20152;-79
2023/08/02 11:12:38;;;;;;;0.50;0.30;;;;;;;;;;6245382;28;20423;-78
2023/08/02 11:15:40;;;;;;;2.72;0.30;;;;;;;;;;6251982;28;20059;-78
2023/08/02 11:18:41;;;;;;;0.45;0.20;;;;;;;;;;6252170;28;20049;-76
2023/08/02 11:21:56;;;;;;;0.47;0.30;;;;;;;;;;6253463;28;20563;-74
2023/08/02 11:24:58;;;;;;;0.20;0.20;;;;;;;;;;6263235;28;20048;-77
2023/08/02 11:28:03;;;;;;;0.20;0.20;;;;;;;;;;6249220;28;20041;-76
2023/08/02 11:31:05;;;;;;;0.73;0.35;;;;;;;;;;6233239;28;20051;-78
2023/08/02 11:34:07;;;;;;;0.05;0.05;;;;;;;;;;6246890;28;20057;-77
2023/08/02 11:37:09;;;;;;;2.00;0.20;;;;;;;;;;6245922;28;21085;-78
2023/08/02 11:40:12;;;;;;;0.20;0.20;;;;;;;;;;6251691;28;20044;-78
2023/08/02 11:43:34;;;;;;;0.20;0.15;;;;;;;;;;6243995;28;20049;-77
2023/08/02 11:46:36;;;;;;;0.85;0.30;;;;;;;;;;6256696;28;20483;-78
2023/08/02 11:50:08;;;;;;;0.50;0.40;;;;;;;;;;6254748;28;20087;-77
2023/08/02 11:53:10;;;;;;;0.93;0.40;;;;;;;;;;6230160;28;20422;-77
2023/08/02 11:56:12;;;;;;;0.20;0.20;;;;;;;;;;6250974;28;20075;-77
2023/08/02 11:59:17;;;;;;;0.85;0.55;;;;;;;;;;6253104;28;20053;-78
2023/08/02 12:02:30;;;;;;;0.75;0.40;;;;;;;;;;6259479;28;20041;-78
2023/08/02 12:05:32;;;;;;;0.90;0.38;;;;;;;;;;6252537;28;20046;-76
2023/08/02 12:08:34;;;;;;;1.38;0.40;;;;;;;;;;6254484;28;20063;-76
2023/08/02 12:11:35;;;;;;;0.30;0.30;;;;;;;;;;6241217;28;20340;-77
2023/08/02 12:14:37;;;;;;;0.40;0.40;;;;;;;;;;6256722;28;20064;-79
2023/08/02 12:17:39;;;;;;;0.40;0.30;;;;;;;;;;6257394;28;20525;-80
2023/08/02 12:20:40;;;;;;;0.73;0.40;;;;;;;;;;6262527;28;20045;-79
2023/08/02 12:23:42;;;;;;;1.77;0.40;;;;;;;;;;6260577;28;20072;-79
2023/08/02 12:26:44;;;;;;;0.32;0.30;;;;;;;;;;6263179;28;20052;-77
2023/08/02 12:29:47;;;;;;;1.98;0.40;;;;;;;;;;6264083;28;20052;-76
2023/08/02 12:32:49;;;;;;;0.50;0.27;;;;;;;;;;6263857;28;20048;-76
2023/08/02 12:35:50;;;;;;;0.75;0.30;;;;;;;;;;6264990;28;20440;-79
2023/08/02 12:38:52;;;;;;;1.13;0.30;;;;;;;;;;6260860;28;20056;-79
2023/08/02 12:41:54;;;;;;;0.50;0.40;;;;;;;;;;6248552;28;20071;-78
2023/08/02 12:44:55;;;;;;;1.33;0.30;;;;;;;;;;6263669;28;20071;-75
2023/08/02 12:48:16;;;;;;;0.47;0.35;;;;;;;;;;6250307;28;20040;-77
2023/08/02 12:51:17;;;;;;;0.30;0.30;;;;;;;;;;6268644;28;20048;-75
2023/08/02 12:54:19;;;;;;;0.57;0.30;;;;;;;;;;6262299;28;20059;-79
2023/08/02 12:57:21;;;;;;;0.20;0.20;;;;;;;;;;6257449;28;20068;-76
2023/08/02 13:00:23;;;;;;;1.40;0.30;;;;;;;;;;6260787;28;20051;-76
2023/08/02 13:03:25;;;;;;;0.20;0.20;;;;;;;;;;6258521;28;20044;-77
2023/08/02 13:06:27;;;;;;;0.40;0.20;;;;;;;;;;6259121;28;20051;-79
2023/08/02 13:09:29;;;;;;;0.35;0.30;;;;;;;;;;6259989;28;20696;-79
2023/08/02 13:12:33;;;;;;;0.75;0.20;;;;;;;;;;6259584;28;20556;-77
2023/08/02 13:15:36;;;;;;;0.40;0.20;;;;;;;;;;6263715;28;20049;-77
2023/08/02 13:18:38;;;;;;;0.10;0.10;;;;;;;;;;6258902;28;20053;-76
2023/08/02 13:21:40;;;;;;;0.23;0.23;;;;;;;;;;6257620;28;20042;-78
2023/08/02 13:24:41;;;;;;;0.40;0.30;;;;;;;;;;6260555;28;20052;-78
2023/08/02 13:27:43;;;;;;;0.28;0.28;;;;;;;;;;6260595;28;20697;-78
2023/08/02 13:30:45;;;;;;;0.57;0.20;;;;;;;;;;6260592;28;20120;-77
2023/08/02 13:33:47;;;;;;;0.20;0.20;;;;;;;;;;6247145;28;20101;-76
2023/08/02 13:36:49;;;;;;;1.10;0.28;;;;;;;;;;6253325;28;20049;-75
2023/08/02 13:39:51;;;;;;;0.38;0.30;;;;;;;;;;6262570;28;20045;-77
2023/08/02 13:42:54;;;;;;;0.30;0.20;;;;;;;;;;6241067;28;20419;-78
2023/08/02 13:45:56;;;;;;;1.00;0.20;;;;;;;;;;6221690;28;20461;-79
2023/08/02 13:48:58;;;;;;;2.63;0.20;;;;;;;;;;6242175;28;20048;-76
2023/08/02 13:51:59;;;;;;;1.13;0.20;;;;;;;;;;6234939;28;20052;-78
2023/08/02 13:55:01;;;;;;;0.20;0.20;;;;;;;;;;6251545;28;20048;-78
2023/08/02 13:58:03;;;;;;;0.52;0.20;;;;;;;;;;6255827;28;20043;-77
2023/08/02 14:01:06;;;;;;;1.40;0.30;;;;;;;;;;6252800;28;20060;-77
2023/08/02 14:04:08;;;;;;;0.57;0.15;;;;;;;;;;6248319;28;20041;-76
2023/08/02 14:07:11;;;;;;;0.30;0.30;;;;;;;;;;6253257;28;20511;-77
2023/08/02 14:10:13;;;;;;;0.93;0.40;;;;;;;;;;6257156;28;20056;-79
2023/08/02 14:13:14;;;;;;;0.33;0.30;;;;;;;;;;6257317;28;20052;-80
2023/08/02 14:16:16;;;;;;;0.38;0.20;;;;;;;;;;6237314;28;20049;-79
2023/08/02 14:19:17;;;;;;;0.22;0.20;;;;;;;;;;6256968;28;20053;-79
2023/08/02 14:22:19;;;;;;;0.20;0.20;;;;;;;;;;6255954;28;20048;-79
2023/08/02 14:25:21;;;;;;;0.22;0.20;;;;;;;;;;6263919;28;20045;-79
2023/08/02 14:28:22;;;;;;;0.68;0.20;;;;;;;;;;6252021;28;20551;-78
2023/08/02 14:31:24;;;;;;;0.50;0.50;;;;;;;;;;6254213;28;20049;-79
2023/08/02 14:34:26;;;;;;;0.38;0.30;;;;;;;;;;6260031;28;20131;-78
2023/08/02 14:37:27;;;;;;;1.17;0.30;;;;;;;;;;6253301;28;20085;-79
2023/08/02 14:40:29;;;;;;;0.30;0.30;;;;;;;;;;6251911;28;20099;-78
2023/08/02 14:43:31;;;;;;;0.30;0.30;;;;;;;;;;6258424;28;20059;-79
2023/08/02 14:46:33;;;;;;;1.13;0.30;;;;;;;;;;6259330;28;20052;-78
2023/08/02 14:49:34;;;;;;;0.98;0.40;;;;;;;;;;6229995;28;20053;-77
2023/08/02 14:52:36;;;;;;;1.30;0.40;;;;;;;;;;6246668;28;20522;-79
2023/08/02 14:55:37;;;;;;;0.95;0.50;;;;;;;;;;6261653;28;20045;-77
2023/08/02 14:58:39;;;;;;;0.38;0.38;;;;;;;;;;6252067;28;20076;-81
2023/08/02 15:01:41;;;;;;;0.33;0.33;;;;;;;;;;6252762;28;20044;-79
2023/08/02 15:04:43;;;;;;;0.55;0.40;;;;;;;;;;6253842;28;20502;-78
2023/08/02 15:07:45;;;;;;;0.60;0.30;;;;;;;;;;6254858;28;20060;-78
2023/08/02 15:10:47;;;;;;;0.40;0.40;;;;;;;;;;6249213;28;20049;-76
2023/08/02 15:13:49;;;;;;;0.30;0.30;;;;;;;;;;6246752;28;20529;-76
2023/08/02 15:16:51;;;;;;;0.40;0.37;;;;;;;;;;6248898;28;20874;-76
2023/08/02 15:19:55;;;;;;;0.30;0.30;;;;;;;;;;6246655;28;20048;-74
2023/08/02 15:22:57;;;;;;;0.55;0.55;;;;;;;;;;6246464;28;20044;-78
2023/08/02 15:25:59;;;;;;;0.47;0.30;;;;;;;;;;6232498;28;20049;-77
2023/08/02 15:29:00;;;;;;;0.38;0.38;;;;;;;;;;6253200;28;20142;-79
2023/08/02 15:32:03;;;;;;;0.35;0.35;;;;;;;;;;6257210;28;20056;-77
2023/08/02 15:35:05;;;;;;;0.50;0.30;;;;;;;;;;6253437;28;20037;-78
2023/08/02 15:38:07;;;;;;;0.75;0.32;;;;;;;;;;6252163;28;20068;-79
2023/08/02 15:41:09;;;;;;;0.60;0.20;;;;;;;;;;6256112;28;20048;-79
2023/08/02 15:44:10;;;;;;;1.47;0.33;;;;;;;;;;6253953;28;20063;-79
2023/08/02 15:47:12;;;;;;;0.55;0.40;;;;;;;;;;6257098;28;20431;-78
2023/08/02 15:50:14;;;;;;;0.52;0.40;;;;;;;;;;6257242;28;20773;-77
2023/08/02 15:53:15;;;;;;;4.47;0.70;;;;;;;;;;6273720;28;20036;-77
2023/08/02 15:56:17;;;;;;;1.70;0.40;;;;;;;;;;6265047;28;20055;-79
2023/08/02 15:59:19;;;;;;;0.47;0.40;;;;;;;;;;6262914;28;20044;-79
2023/08/02 16:02:20;;;;;;;0.70;0.70;;;;;;;;;;6243049;28;20099;-77
2023/08/02 16:05:22;;;;;;;0.50;0.40;;;;;;;;;;6262426;28;20049;-80
2023/08/02 16:08:24;;;;;;;0.60;0.40;;;;;;;;;;6259685;28;20489;-77
2023/08/02 16:11:25;;;;;;;0.82;0.50;;;;;;;;;;6255449;28;20445;-77
2023/08/02 16:14:27;;;;;;;0.40;0.40;;;;;;;;;;6253077;28;20503;-76
2023/08/02 16:17:29;;;;;;;2.30;0.50;;;;;;;;;;6258539;28;20634;-78
2023/08/02 16:20:30;;;;;;;0.40;0.40;;;;;;;;;;6238266;28;20049;-78
2023/08/02 16:23:32;;;;;;;0.50;0.50;;;;;;;;;;6256678;28;20111;-80
2023/08/02 16:26:34;;;;;;;1.92;0.40;;;;;;;;;;6253965;28;20041;-78
2023/08/02 16:29:36;;;;;;;0.60;0.60;;;;;;;;;;6229499;28;20041;-78
2023/08/02 16:32:38;;;;;;;0.93;0.60;;;;;;;;;;6240524;28;20056;-79
2023/08/02 16:35:40;;;;;;;1.77;0.60;;;;;;;;;;6259744;28;20045;-76
2023/08/02 16:38:45;;;;;;;0.77;0.60;;;;;;;;;;6250862;28;20049;-79
2023/08/02 16:41:47;;;;;;;0.70;0.70;;;;;;;;;;6242972;28;20041;-76
2023/08/02 16:44:49;;;;;;;0.90;0.68;;;;;;;;;;6230359;28;20408;-80
2023/08/02 16:47:50;;;;;;;0.70;0.63;;;;;;;;;;6252564;28;20046;-75
2023/08/02 16:50:52;;;;;;;0.98;0.60;;;;;;;;;;6231288;28;20528;-78
2023/08/02 16:53:54;;;;;;;0.70;0.70;;;;;;;;;;6256624;28;20041;-81
2023/08/02 16:56:58;;;;;;;1.25;0.80;;;;;;;;;;6255523;28;20580;-81
2023/08/02 17:00:01;;;;;;;1.48;0.70;;;;;;;;;;6254377;28;20045;-77
2023/08/02 17:03:03;;;;;;;1.45;0.70;;;;;;;;;;6257306;28;20144;-81
2023/08/02 17:06:05;;;;;;;1.40;0.63;;;;;;;;;;6255763;28;20136;-79
2023/08/02 17:09:07;;;;;;;1.90;0.60;;;;;;;;;;6255317;28;20045;-77
2023/08/02 17:12:09;;;;;;;1.92;1.00;;;;;;;;;;6259712;28;20064;-77
2023/08/02 17:15:11;;;;;;;3.50;0.80;;;;;;;;;;6254792;28;20048;-78
2023/08/02 17:18:13;;;;;;;1.60;1.10;;;;;;;;;;6256402;28;20045;-79
2023/08/02 17:21:14;;;;;;;0.80;0.80;;;;;;;;;;6249871;28;20102;-77
2023/08/02 17:24:16;;;;;;;2.95;0.80;;;;;;;;;;6254742;28;20095;-78
2023/08/02 17:27:18;;;;;;;2.25;0.98;;;;;;;;;;6255084;28;20052;-79
2023/08/02 17:30:19;;;;;;;1.45;0.80;;;;;;;;;;6250731;28;20056;-79
2023/08/02 17:33:21;;;;;;;1.10;0.80;;;;;;;;;;6256918;28;20056;-80
2023/08/02 17:36:23;;;;;;;1.80;1.00;;;;;;;;;;6256055;28;20764;-77
2023/08/02 17:39:25;;;;;;;2.22;1.00;;;;;;;;;;6256952;28;20056;-76
2023/08/02 17:42:27;;;;;;;0.85;0.82;;;;;;;;;;6255556;28;20053;-79
2023/08/02 17:45:31;;;;;;;1.33;1.00;;;;;;;;;;6254846;28;20506;-78
2023/08/02 17:48:33;;;;;;;1.55;1.08;;;;;;;;;;6257349;28;20056;-78
2023/08/02 17:51:35;;;;;;;2.17;1.23;;;;;;;;;;6254641;28;20037;-79
2023/08/02 17:54:37;;;;;;;;;;;;;;;;;;6257707;28;20052;-80
2023/08/02 17:57:39;;;;;;;0.85;0.73;;;;;;;;;;6255271;28;19921;-78
2023/08/02 18:00:40;;;;;;;2.05;0.90;;;;;;;;;;6257080;28;20465;-78
2023/08/02 18:03:47;;;;;;;0.97;0.80;;;;;;;;;;6257024;28;20413;-80
2023/08/02 18:06:49;;;;;;;0.93;0.82;;;;;;;;;;6237946;28;20458;-77
2023/08/02 18:09:52;;;;;;;2.40;0.80;;;;;;;;;;6243874;28;20056;-78
2023/08/02 18:12:53;;;;;;;2.47;1.10;;;;;;;;;;6258145;28;20503;-79
2023/08/02 18:15:55;;;;;;;1.15;0.75;;;;;;;;;;6245430;28;20072;-78